sensor_id;sensor_type;location;lat;lon;timestamp;P1;durP1;ratioP1;P2;durP2;ratioP2
13741;SDS011;8461;52.356;10.704;2023-03-13T00:01:08;12.70;;;4.27;;
13741;SDS011;8461;52.356;10.704;2023-03-13T00:03:39;16.03;;;3.97;;
13741;SDS011;8461;52.356;10.704;2023-03-13T00:06:05;13.10;;;3.37;;
13741;SDS011;8461;52.356;10.704;2023-03-13T00:08:31;15.73;;;3.80;;
13741;SDS011;8461;52.356;10.704;2023-03-13T00:10:56;17.10;;;3.70;;
13741;SDS011;8461;52.356;10.704;2023-03-13T00:13:22;11.97;;;3.33;;
13741;SDS011;8461;52.356;10.704;2023-03-13T00:15:47;15.83;;;4.13;;
13741;SDS011;8461;52.356;10.704;2023-03-13T00:18:13;11.57;;;3.43;;
13741;SDS011;8461;52.356;10.704;2023-03-13T00:20:38;11.87;;;3.13;;
13741;SDS011;8461;52.356;10.704;2023-03-13T00:23:04;11.70;;;2.97;;
13741;SDS011;8461;52.356;10.704;2023-03-13T00:25:30;12.10;;;2.80;;
13741;SDS011;8461;52.356;10.704;2023-03-13T00:27:55;12.77;;;3.00;;
13741;SDS011;8461;52.356;10.704;2023-03-13T00:30:21;12.47;;;4.00;;
13741;SDS011;8461;52.356;10.704;2023-03-13T00:32:46;9.60;;;2.90;;
13741;SDS011;8461;52.356;10.704;2023-03-13T00:35:12;9.83;;;3.20;;
13741;SDS011;8461;52.356;10.704;2023-03-13T00:37:39;10.47;;;3.10;;
13741;SDS011;8461;52.356;10.704;2023-03-13T00:40:05;12.67;;;3.53;;
13741;SDS011;8461;52.356;10.704;2023-03-13T00:42:32;9.73;;;2.23;;
13741;SDS011;8461;52.356;10.704;2023-03-13T00:44:58;12.23;;;2.73;;
13741;SDS011;8461;52.356;10.704;2023-03-13T00:47:23;10.87;;;3.10;;
13741;SDS011;8461;52.356;10.704;2023-03-13T00:49:49;12.60;;;2.80;;
13741;SDS011;8461;52.356;10.704;2023-03-13T00:52:15;11.03;;;3.37;;
13741;SDS011;8461;52.356;10.704;2023-03-13T00:54:40;13.03;;;3.40;;
13741;SDS011;8461;52.356;10.704;2023-03-13T00:57:07;12.93;;;3.13;;
13741;SDS011;8461;52.356;10.704;2023-03-13T00:59:32;11.27;;;3.07;;
13741;SDS011;8461;52.356;10.704;2023-03-13T01:01:58;11.07;;;2.63;;
13741;SDS011;8461;52.356;10.704;2023-03-13T01:04:23;8.57;;;2.60;;
13741;SDS011;8461;52.356;10.704;2023-03-13T01:06:49;14.50;;;2.73;;
13741;SDS011;8461;52.356;10.704;2023-03-13T01:09:15;12.17;;;2.87;;
13741;SDS011;8461;52.356;10.704;2023-03-13T01:11:41;10.70;;;3.37;;
13741;SDS011;8461;52.356;10.704;2023-03-13T01:14:10;11.27;;;3.00;;
13741;SDS011;8461;52.356;10.704;2023-03-13T01:16:37;11.37;;;3.03;;
13741;SDS011;8461;52.356;10.704;2023-03-13T01:19:05;10.77;;;3.27;;
13741;SDS011;8461;52.356;10.704;2023-03-13T01:21:32;10.73;;;2.73;;
13741;SDS011;8461;52.356;10.704;2023-03-13T01:23:58;10.77;;;3.00;;
13741;SDS011;8461;52.356;10.704;2023-03-13T01:26:24;18.80;;;3.10;;
13741;SDS011;8461;52.356;10.704;2023-03-13T01:28:50;8.63;;;2.83;;
13741;SDS011;8461;52.356;10.704;2023-03-13T01:31:17;12.00;;;2.63;;
13741;SDS011;8461;52.356;10.704;2023-03-13T01:33:49;10.53;;;2.47;;
13741;SDS011;8461;52.356;10.704;2023-03-13T01:36:16;9.33;;;2.77;;
13741;SDS011;8461;52.356;10.704;2023-03-13T01:38:43;13.80;;;3.07;;
13741;SDS011;8461;52.356;10.704;2023-03-13T01:41:11;13.97;;;3.23;;
13741;SDS011;8461;52.356;10.704;2023-03-13T01:43:38;14.13;;;4.00;;
13741;SDS011;8461;52.356;10.704;2023-03-13T01:46:13;10.40;;;2.90;;
13741;SDS011;8461;52.356;10.704;2023-03-13T01:48:50;15.50;;;3.73;;
13741;SDS011;8461;52.356;10.704;2023-03-13T01:59:14;8.53;;;2.57;;
13741;SDS011;8461;52.356;10.704;2023-03-13T02:01:45;11.03;;;2.93;;
13741;SDS011;8461;52.356;10.704;2023-03-13T02:04:13;11.77;;;3.43;;
13741;SDS011;8461;52.356;10.704;2023-03-13T02:06:42;8.70;;;3.27;;
13741;SDS011;8461;52.356;10.704;2023-03-13T02:09:15;8.70;;;3.10;;
13741;SDS011;8461;52.356;10.704;2023-03-13T02:11:47;11.20;;;3.77;;
13741;SDS011;8461;52.356;10.704;2023-03-13T02:14:17;9.87;;;3.00;;
13741;SDS011;8461;52.356;10.704;2023-03-13T02:16:45;10.50;;;2.77;;
13741;SDS011;8461;52.356;10.704;2023-03-13T02:19:21;10.20;;;2.27;;
13741;SDS011;8461;52.356;10.704;2023-03-13T02:21:52;12.03;;;3.00;;
13741;SDS011;8461;52.356;10.704;2023-03-13T02:24:41;14.90;;;2.83;;
13741;SDS011;8461;52.356;10.704;2023-03-13T02:27:17;12.93;;;2.93;;
13741;SDS011;8461;52.356;10.704;2023-03-13T02:29:42;12.37;;;3.03;;
13741;SDS011;8461;52.356;10.704;2023-03-13T02:32:08;14.73;;;3.53;;
13741;SDS011;8461;52.356;10.704;2023-03-13T02:34:34;8.93;;;2.10;;
13741;SDS011;8461;52.356;10.704;2023-03-13T02:37:03;12.43;;;2.90;;
13741;SDS011;8461;52.356;10.704;2023-03-13T02:39:31;12.07;;;2.73;;
13741;SDS011;8461;52.356;10.704;2023-03-13T02:41:58;11.40;;;3.13;;
13741;SDS011;8461;52.356;10.704;2023-03-13T02:44:25;12.80;;;3.20;;
13741;SDS011;8461;52.356;10.704;2023-03-13T02:46:51;12.70;;;3.57;;
13741;SDS011;8461;52.356;10.704;2023-03-13T02:51:50;16.80;;;3.43;;
13741;SDS011;8461;52.356;10.704;2023-03-13T02:54:20;12.80;;;3.33;;
13741;SDS011;8461;52.356;10.704;2023-03-13T02:56:49;9.80;;;2.97;;
13741;SDS011;8461;52.356;10.704;2023-03-13T02:59:19;9.13;;;2.80;;
13741;SDS011;8461;52.356;10.704;2023-03-13T03:01:44;12.70;;;2.67;;
13741;SDS011;8461;52.356;10.704;2023-03-13T03:04:10;14.30;;;3.10;;
13741;SDS011;8461;52.356;10.704;2023-03-13T03:06:36;9.07;;;2.77;;
13741;SDS011;8461;52.356;10.704;2023-03-13T03:09:02;14.83;;;2.87;;
13741;SDS011;8461;52.356;10.704;2023-03-13T03:11:28;12.80;;;2.90;;
13741;SDS011;8461;52.356;10.704;2023-03-13T03:13:54;11.67;;;2.30;;
13741;SDS011;8461;52.356;10.704;2023-03-13T03:16:19;12.83;;;2.80;;
13741;SDS011;8461;52.356;10.704;2023-03-13T03:18:45;12.00;;;2.93;;
13741;SDS011;8461;52.356;10.704;2023-03-13T03:21:10;11.13;;;2.83;;
13741;SDS011;8461;52.356;10.704;2023-03-13T03:23:36;14.40;;;3.20;;
13741;SDS011;8461;52.356;10.704;2023-03-13T03:26:02;13.67;;;4.17;;
13741;SDS011;8461;52.356;10.704;2023-03-13T03:28:29;8.93;;;2.53;;
13741;SDS011;8461;52.356;10.704;2023-03-13T03:30:55;8.13;;;2.70;;
13741;SDS011;8461;52.356;10.704;2023-03-13T03:33:21;10.43;;;2.80;;
13741;SDS011;8461;52.356;10.704;2023-03-13T03:35:47;8.03;;;2.13;;
13741;SDS011;8461;52.356;10.704;2023-03-13T03:38:12;13.00;;;2.67;;
13741;SDS011;8461;52.356;10.704;2023-03-13T03:40:38;8.80;;;2.80;;
13741;SDS011;8461;52.356;10.704;2023-03-13T03:43:03;13.43;;;2.57;;
13741;SDS011;8461;52.356;10.704;2023-03-13T03:45:29;17.37;;;3.03;;
13741;SDS011;8461;52.356;10.704;2023-03-13T03:47:55;8.90;;;2.63;;
13741;SDS011;8461;52.356;10.704;2023-03-13T03:50:23;15.10;;;3.50;;
13741;SDS011;8461;52.356;10.704;2023-03-13T03:52:49;14.17;;;2.83;;
13741;SDS011;8461;52.356;10.704;2023-03-13T03:55:15;8.27;;;2.30;;
13741;SDS011;8461;52.356;10.704;2023-03-13T03:57:41;11.77;;;3.73;;
13741;SDS011;8461;52.356;10.704;2023-03-13T04:00:06;11.43;;;2.43;;
13741;SDS011;8461;52.356;10.704;2023-03-13T04:02:34;9.33;;;2.60;;
13741;SDS011;8461;52.356;10.704;2023-03-13T04:05:01;12.73;;;2.27;;
13741;SDS011;8461;52.356;10.704;2023-03-13T04:07:26;10.80;;;2.53;;
13741;SDS011;8461;52.356;10.704;2023-03-13T04:09:52;12.63;;;3.57;;
13741;SDS011;8461;52.356;10.704;2023-03-13T04:12:17;13.07;;;2.97;;
13741;SDS011;8461;52.356;10.704;2023-03-13T04:14:43;5.97;;;1.67;;
13741;SDS011;8461;52.356;10.704;2023-03-13T04:17:08;14.00;;;2.67;;
13741;SDS011;8461;52.356;10.704;2023-03-13T04:19:34;9.73;;;2.83;;
13741;SDS011;8461;52.356;10.704;2023-03-13T04:21:59;14.13;;;2.67;;
13741;SDS011;8461;52.356;10.704;2023-03-13T04:24:25;11.60;;;2.83;;
13741;SDS011;8461;52.356;10.704;2023-03-13T04:26:50;17.07;;;3.73;;
13741;SDS011;8461;52.356;10.704;2023-03-13T04:29:16;9.33;;;2.33;;
13741;SDS011;8461;52.356;10.704;2023-03-13T04:31:41;10.60;;;2.73;;
13741;SDS011;8461;52.356;10.704;2023-03-13T04:34:07;6.30;;;2.40;;
13741;SDS011;8461;52.356;10.704;2023-03-13T04:36:33;16.40;;;2.77;;
13741;SDS011;8461;52.356;10.704;2023-03-13T04:38:58;11.27;;;2.60;;
13741;SDS011;8461;52.356;10.704;2023-03-13T04:41:24;9.93;;;2.90;;
13741;SDS011;8461;52.356;10.704;2023-03-13T04:43:49;20.13;;;3.10;;
13741;SDS011;8461;52.356;10.704;2023-03-13T04:46:15;13.20;;;2.93;;
13741;SDS011;8461;52.356;10.704;2023-03-13T04:48:40;9.97;;;2.70;;
13741;SDS011;8461;52.356;10.704;2023-03-13T04:51:06;11.33;;;2.67;;
13741;SDS011;8461;52.356;10.704;2023-03-13T04:53:31;14.10;;;2.43;;
13741;SDS011;8461;52.356;10.704;2023-03-13T04:55:57;13.77;;;3.17;;
13741;SDS011;8461;52.356;10.704;2023-03-13T04:58:22;10.27;;;3.10;;
13741;SDS011;8461;52.356;10.704;2023-03-13T05:00:48;10.80;;;2.53;;
13741;SDS011;8461;52.356;10.704;2023-03-13T05:03:14;10.63;;;2.83;;
13741;SDS011;8461;52.356;10.704;2023-03-13T05:05:39;7.77;;;2.37;;
13741;SDS011;8461;52.356;10.704;2023-03-13T05:08:05;11.83;;;2.57;;
13741;SDS011;8461;52.356;10.704;2023-03-13T05:10:30;13.53;;;2.57;;
13741;SDS011;8461;52.356;10.704;2023-03-13T05:12:56;9.93;;;2.07;;
13741;SDS011;8461;52.356;10.704;2023-03-13T05:15:21;9.63;;;2.10;;
13741;SDS011;8461;52.356;10.704;2023-03-13T05:17:47;8.83;;;2.33;;
13741;SDS011;8461;52.356;10.704;2023-03-13T05:20:12;8.47;;;2.50;;
13741;SDS011;8461;52.356;10.704;2023-03-13T05:22:38;13.53;;;2.90;;
13741;SDS011;8461;52.356;10.704;2023-03-13T05:25:03;6.37;;;2.10;;
13741;SDS011;8461;52.356;10.704;2023-03-13T05:27:30;11.40;;;2.70;;
13741;SDS011;8461;52.356;10.704;2023-03-13T05:29:56;8.97;;;2.60;;
13741;SDS011;8461;52.356;10.704;2023-03-13T05:32:21;11.30;;;3.20;;
13741;SDS011;8461;52.356;10.704;2023-03-13T05:34:47;10.93;;;3.17;;
13741;SDS011;8461;52.356;10.704;2023-03-13T05:37:12;11.70;;;3.60;;
13741;SDS011;8461;52.356;10.704;2023-03-13T05:39:38;12.20;;;2.70;;
13741;SDS011;8461;52.356;10.704;2023-03-13T05:42:03;7.67;;;2.53;;
13741;SDS011;8461;52.356;10.704;2023-03-13T05:44:29;12.97;;;2.70;;
13741;SDS011;8461;52.356;10.704;2023-03-13T05:46:54;7.97;;;2.77;;
13741;SDS011;8461;52.356;10.704;2023-03-13T05:49:20;15.00;;;3.27;;
13741;SDS011;8461;52.356;10.704;2023-03-13T05:51:46;17.90;;;3.50;;
13741;SDS011;8461;52.356;10.704;2023-03-13T05:54:11;14.53;;;3.10;;
13741;SDS011;8461;52.356;10.704;2023-03-13T05:56:37;9.10;;;3.47;;
13741;SDS011;8461;52.356;10.704;2023-03-13T05:59:02;9.73;;;2.77;;
13741;SDS011;8461;52.356;10.704;2023-03-13T06:01:28;10.83;;;3.17;;
13741;SDS011;8461;52.356;10.704;2023-03-13T06:03:53;12.17;;;2.43;;
13741;SDS011;8461;52.356;10.704;2023-03-13T06:06:19;9.80;;;3.17;;
13741;SDS011;8461;52.356;10.704;2023-03-13T06:08:44;11.17;;;2.40;;
13741;SDS011;8461;52.356;10.704;2023-03-13T06:11:10;11.90;;;3.33;;
13741;SDS011;8461;52.356;10.704;2023-03-13T06:13:35;13.87;;;2.77;;
13741;SDS011;8461;52.356;10.704;2023-03-13T06:16:01;9.47;;;2.50;;
13741;SDS011;8461;52.356;10.704;2023-03-13T06:18:27;14.73;;;2.27;;
13741;SDS011;8461;52.356;10.704;2023-03-13T06:20:56;15.73;;;3.23;;
13741;SDS011;8461;52.356;10.704;2023-03-13T06:23:24;11.83;;;3.00;;
13741;SDS011;8461;52.356;10.704;2023-03-13T06:25:50;10.10;;;2.87;;
13741;SDS011;8461;52.356;10.704;2023-03-13T06:28:16;12.30;;;2.30;;
13741;SDS011;8461;52.356;10.704;2023-03-13T06:30:42;8.00;;;2.77;;
13741;SDS011;8461;52.356;10.704;2023-03-13T06:33:07;7.70;;;2.47;;
13741;SDS011;8461;52.356;10.704;2023-03-13T06:35:33;9.27;;;2.37;;
13741;SDS011;8461;52.356;10.704;2023-03-13T06:37:59;8.73;;;2.50;;
13741;SDS011;8461;52.356;10.704;2023-03-13T06:40:24;13.53;;;2.60;;
13741;SDS011;8461;52.356;10.704;2023-03-13T06:42:50;5.47;;;2.00;;
13741;SDS011;8461;52.356;10.704;2023-03-13T06:45:15;4.73;;;2.27;;
13741;SDS011;8461;52.356;10.704;2023-03-13T06:47:41;11.97;;;2.13;;
13741;SDS011;8461;52.356;10.704;2023-03-13T06:50:07;7.20;;;1.60;;
13741;SDS011;8461;52.356;10.704;2023-03-13T06:52:33;7.77;;;2.10;;
13741;SDS011;8461;52.356;10.704;2023-03-13T06:54:58;7.47;;;1.77;;
13741;SDS011;8461;52.356;10.704;2023-03-13T06:57:25;11.60;;;2.23;;
13741;SDS011;8461;52.356;10.704;2023-03-13T06:59:50;9.53;;;2.23;;
13741;SDS011;8461;52.356;10.704;2023-03-13T07:02:16;6.13;;;1.93;;
13741;SDS011;8461;52.356;10.704;2023-03-13T07:04:42;4.10;;;2.20;;
13741;SDS011;8461;52.356;10.704;2023-03-13T07:07:07;4.70;;;1.50;;
13741;SDS011;8461;52.356;10.704;2023-03-13T07:09:33;8.47;;;2.07;;
13741;SDS011;8461;52.356;10.704;2023-03-13T07:11:58;6.07;;;2.00;;
13741;SDS011;8461;52.356;10.704;2023-03-13T07:14:24;3.67;;;1.63;;
13741;SDS011;8461;52.356;10.704;2023-03-13T07:16:49;10.20;;;2.30;;
13741;SDS011;8461;52.356;10.704;2023-03-13T07:19:15;8.30;;;1.93;;
13741;SDS011;8461;52.356;10.704;2023-03-13T07:21:41;7.97;;;1.70;;
13741;SDS011;8461;52.356;10.704;2023-03-13T07:24:07;6.30;;;1.90;;
13741;SDS011;8461;52.356;10.704;2023-03-13T07:26:33;4.93;;;1.57;;
13741;SDS011;8461;52.356;10.704;2023-03-13T07:28:59;5.80;;;1.60;;
13741;SDS011;8461;52.356;10.704;2023-03-13T07:31:24;5.23;;;1.90;;
13741;SDS011;8461;52.356;10.704;2023-03-13T07:33:50;5.77;;;1.70;;
13741;SDS011;8461;52.356;10.704;2023-03-13T07:36:20;4.10;;;1.53;;
13741;SDS011;8461;52.356;10.704;2023-03-13T07:38:46;5.53;;;1.60;;
13741;SDS011;8461;52.356;10.704;2023-03-13T07:41:13;5.00;;;2.00;;
13741;SDS011;8461;52.356;10.704;2023-03-13T07:43:38;3.53;;;1.43;;
13741;SDS011;8461;52.356;10.704;2023-03-13T07:46:04;5.67;;;2.13;;
13741;SDS011;8461;52.356;10.704;2023-03-13T07:48:32;5.80;;;1.70;;
13741;SDS011;8461;52.356;10.704;2023-03-13T07:51:02;5.67;;;2.33;;
13741;SDS011;8461;52.356;10.704;2023-03-13T07:53:29;5.07;;;2.00;;
13741;SDS011;8461;52.356;10.704;2023-03-13T07:55:56;7.57;;;2.37;;
13741;SDS011;8461;52.356;10.704;2023-03-13T07:58:23;5.27;;;1.90;;
13741;SDS011;8461;52.356;10.704;2023-03-13T08:00:50;7.17;;;2.10;;
13741;SDS011;8461;52.356;10.704;2023-03-13T08:03:16;5.40;;;2.30;;
13741;SDS011;8461;52.356;10.704;2023-03-13T08:05:42;4.70;;;2.43;;
13741;SDS011;8461;52.356;10.704;2023-03-13T08:08:08;6.07;;;2.23;;
13741;SDS011;8461;52.356;10.704;2023-03-13T08:10:33;5.87;;;2.37;;
13741;SDS011;8461;52.356;10.704;2023-03-13T08:12:59;6.87;;;2.40;;
13741;SDS011;8461;52.356;10.704;2023-03-13T08:15:24;3.13;;;1.40;;
13741;SDS011;8461;52.356;10.704;2023-03-13T08:17:51;7.80;;;1.57;;
13741;SDS011;8461;52.356;10.704;2023-03-13T08:20:17;7.93;;;2.40;;
13741;SDS011;8461;52.356;10.704;2023-03-13T08:22:43;3.73;;;1.40;;
13741;SDS011;8461;52.356;10.704;2023-03-13T08:25:10;3.27;;;1.20;;
13741;SDS011;8461;52.356;10.704;2023-03-13T08:27:36;4.20;;;1.07;;
13741;SDS011;8461;52.356;10.704;2023-03-13T08:30:02;7.27;;;1.80;;
13741;SDS011;8461;52.356;10.704;2023-03-13T08:32:31;3.40;;;1.07;;
13741;SDS011;8461;52.356;10.704;2023-03-13T08:34:57;2.03;;;1.10;;
13741;SDS011;8461;52.356;10.704;2023-03-13T08:37:23;1.27;;;0.90;;
13741;SDS011;8461;52.356;10.704;2023-03-13T08:39:48;2.93;;;1.53;;
13741;SDS011;8461;52.356;10.704;2023-03-13T08:42:14;1.80;;;0.77;;
13741;SDS011;8461;52.356;10.704;2023-03-13T08:44:39;1.63;;;1.10;;
13741;SDS011;8461;52.356;10.704;2023-03-13T08:47:06;3.33;;;0.87;;
13741;SDS011;8461;52.356;10.704;2023-03-13T08:49:32;2.37;;;1.53;;
13741;SDS011;8461;52.356;10.704;2023-03-13T08:51:58;2.30;;;0.73;;
13741;SDS011;8461;52.356;10.704;2023-03-13T08:54:23;2.63;;;0.97;;
13741;SDS011;8461;52.356;10.704;2023-03-13T08:56:49;1.80;;;1.10;;
13741;SDS011;8461;52.356;10.704;2023-03-13T08:59:14;2.40;;;1.30;;
13741;SDS011;8461;52.356;10.704;2023-03-13T09:01:40;3.27;;;1.10;;
13741;SDS011;8461;52.356;10.704;2023-03-13T09:04:05;2.33;;;1.17;;
13741;SDS011;8461;52.356;10.704;2023-03-13T09:06:35;2.13;;;0.87;;
13741;SDS011;8461;52.356;10.704;2023-03-13T09:09:03;1.73;;;1.27;;
13741;SDS011;8461;52.356;10.704;2023-03-13T09:11:31;1.10;;;0.53;;
13741;SDS011;8461;52.356;10.704;2023-03-13T09:13:57;2.37;;;0.90;;
13741;SDS011;8461;52.356;10.704;2023-03-13T09:16:24;2.03;;;1.03;;
13741;SDS011;8461;52.356;10.704;2023-03-13T09:18:54;3.63;;;0.70;;
13741;SDS011;8461;52.356;10.704;2023-03-13T09:21:21;1.97;;;0.90;;
13741;SDS011;8461;52.356;10.704;2023-03-13T09:23:49;2.33;;;0.77;;
13741;SDS011;8461;52.356;10.704;2023-03-13T09:26:15;5.10;;;1.40;;
13741;SDS011;8461;52.356;10.704;2023-03-13T09:28:42;2.53;;;1.40;;
13741;SDS011;8461;52.356;10.704;2023-03-13T09:31:08;3.37;;;1.07;;
13741;SDS011;8461;52.356;10.704;2023-03-13T09:34:02;3.50;;;1.10;;
13741;SDS011;8461;52.356;10.704;2023-03-13T09:36:28;2.63;;;1.50;;
13741;SDS011;8461;52.356;10.704;2023-03-13T09:38:54;5.37;;;1.40;;
13741;SDS011;8461;52.356;10.704;2023-03-13T09:44:24;1.17;;;0.83;;
13741;SDS011;8461;52.356;10.704;2023-03-13T09:49:28;1.87;;;0.90;;
13741;SDS011;8461;52.356;10.704;2023-03-13T09:54:46;1.90;;;1.20;;
13741;SDS011;8461;52.356;10.704;2023-03-13T09:57:55;2.03;;;1.10;;
13741;SDS011;8461;52.356;10.704;2023-03-13T10:00:30;2.37;;;1.13;;
13741;SDS011;8461;52.356;10.704;2023-03-13T10:05:37;2.50;;;0.90;;
13741;SDS011;8461;52.356;10.704;2023-03-13T10:08:09;0.93;;;0.70;;
13741;SDS011;8461;52.356;10.704;2023-03-13T10:10:45;2.07;;;0.80;;
13741;SDS011;8461;52.356;10.704;2023-03-13T10:13:18;1.13;;;0.50;;
13741;SDS011;8461;52.356;10.704;2023-03-13T10:15:55;1.37;;;1.00;;
13741;SDS011;8461;52.356;10.704;2023-03-13T10:18:28;3.67;;;0.73;;
13741;SDS011;8461;52.356;10.704;2023-03-13T10:20:58;1.73;;;0.40;;
13741;SDS011;8461;52.356;10.704;2023-03-13T10:26:04;1.23;;;0.50;;
13741;SDS011;8461;52.356;10.704;2023-03-13T10:28:34;2.97;;;0.70;;
13741;SDS011;8461;52.356;10.704;2023-03-13T10:31:01;1.80;;;0.70;;
13741;SDS011;8461;52.356;10.704;2023-03-13T10:33:33;2.40;;;0.60;;
13741;SDS011;8461;52.356;10.704;2023-03-13T10:36:02;2.37;;;0.87;;
13741;SDS011;8461;52.356;10.704;2023-03-13T10:38:32;2.60;;;0.87;;
13741;SDS011;8461;52.356;10.704;2023-03-13T10:41:01;1.67;;;0.63;;
13741;SDS011;8461;52.356;10.704;2023-03-13T10:43:50;2.53;;;0.60;;
13741;SDS011;8461;52.356;10.704;2023-03-13T10:46:34;1.57;;;0.77;;
13741;SDS011;8461;52.356;10.704;2023-03-13T10:49:10;1.80;;;0.70;;
13741;SDS011;8461;52.356;10.704;2023-03-13T10:51:48;1.33;;;0.67;;
13741;SDS011;8461;52.356;10.704;2023-03-13T10:56:51;3.03;;;0.80;;
13741;SDS011;8461;52.356;10.704;2023-03-13T10:59:38;1.63;;;0.60;;
13741;SDS011;8461;52.356;10.704;2023-03-13T11:02:12;1.03;;;0.40;;
13741;SDS011;8461;52.356;10.704;2023-03-13T11:05:01;1.90;;;0.90;;
13741;SDS011;8461;52.356;10.704;2023-03-13T11:07:47;1.40;;;0.90;;
13741;SDS011;8461;52.356;10.704;2023-03-13T11:12:45;0.97;;;0.60;;
13741;SDS011;8461;52.356;10.704;2023-03-13T11:15:25;1.27;;;0.80;;
13741;SDS011;8461;52.356;10.704;2023-03-13T11:18:17;1.50;;;0.80;;
13741;SDS011;8461;52.356;10.704;2023-03-13T11:20:47;1.40;;;0.90;;
13741;SDS011;8461;52.356;10.704;2023-03-13T11:23:22;2.10;;;0.90;;
13741;SDS011;8461;52.356;10.704;2023-03-13T11:26:13;2.47;;;1.07;;
13741;SDS011;8461;52.356;10.704;2023-03-13T11:29:05;3.80;;;0.90;;
13741;SDS011;8461;52.356;10.704;2023-03-13T11:36:52;1.23;;;0.80;;
13741;SDS011;8461;52.356;10.704;2023-03-13T11:53:27;3.10;;;0.90;;
13741;SDS011;8461;52.356;10.704;2023-03-13T11:56:21;1.07;;;0.50;;
13741;SDS011;8461;52.356;10.704;2023-03-13T12:01:53;0.60;;;0.50;;
13741;SDS011;8461;52.356;10.704;2023-03-13T12:07:09;1.43;;;0.53;;
13741;SDS011;8461;52.356;10.704;2023-03-13T12:09:50;1.53;;;0.70;;
13741;SDS011;8461;52.356;10.704;2023-03-13T12:12:22;2.33;;;1.10;;
13741;SDS011;8461;52.356;10.704;2023-03-13T12:17:48;3.40;;;0.80;;
13741;SDS011;8461;52.356;10.704;2023-03-13T12:20:26;1.03;;;0.60;;
13741;SDS011;8461;52.356;10.704;2023-03-13T12:25:38;3.20;;;0.70;;
13741;SDS011;8461;52.356;10.704;2023-03-13T12:28:28;1.33;;;0.60;;
13741;SDS011;8461;52.356;10.704;2023-03-13T12:31:08;3.43;;;0.60;;
13741;SDS011;8461;52.356;10.704;2023-03-13T12:33:43;1.20;;;0.70;;
13741;SDS011;8461;52.356;10.704;2023-03-13T12:39:10;2.27;;;1.07;;
13741;SDS011;8461;52.356;10.704;2023-03-13T12:41:53;1.67;;;0.70;;
13741;SDS011;8461;52.356;10.704;2023-03-13T12:44:31;1.03;;;0.70;;
13741;SDS011;8461;52.356;10.704;2023-03-13T12:49:55;1.47;;;0.60;;
13741;SDS011;8461;52.356;10.704;2023-03-13T12:52:51;2.10;;;0.90;;
13741;SDS011;8461;52.356;10.704;2023-03-13T12:55:28;1.87;;;1.03;;
13741;SDS011;8461;52.356;10.704;2023-03-13T13:00:46;5.93;;;0.90;;
13741;SDS011;8461;52.356;10.704;2023-03-13T13:08:38;0.63;;;0.50;;
13741;SDS011;8461;52.356;10.704;2023-03-13T13:13:57;0.80;;;0.57;;
13741;SDS011;8461;52.356;10.704;2023-03-13T13:16:23;0.83;;;0.67;;
13741;SDS011;8461;52.356;10.704;2023-03-13T13:18:50;1.80;;;0.40;;
13741;SDS011;8461;52.356;10.704;2023-03-13T13:23:45;1.13;;;0.60;;
13741;SDS011;8461;52.356;10.704;2023-03-13T13:36:54;1.03;;;0.77;;
13741;SDS011;8461;52.356;10.704;2023-03-13T13:41:58;1.03;;;0.40;;
13741;SDS011;8461;52.356;10.704;2023-03-13T13:44:25;1.00;;;0.47;;
13741;SDS011;8461;52.356;10.704;2023-03-13T13:46:52;1.20;;;0.50;;
13741;SDS011;8461;52.356;10.704;2023-03-13T13:49:26;0.80;;;0.47;;
13741;SDS011;8461;52.356;10.704;2023-03-13T13:57:19;2.50;;;0.57;;
13741;SDS011;8461;52.356;10.704;2023-03-13T13:59:48;1.47;;;0.67;;
13741;SDS011;8461;52.356;10.704;2023-03-13T14:02:25;1.43;;;0.77;;
13741;SDS011;8461;52.356;10.704;2023-03-13T14:05:01;2.57;;;0.80;;
13741;SDS011;8461;52.356;10.704;2023-03-13T14:10:16;1.57;;;0.90;;
13741;SDS011;8461;52.356;10.704;2023-03-13T14:12:53;0.77;;;0.60;;
13741;SDS011;8461;52.356;10.704;2023-03-13T14:15:27;5.27;;;0.80;;
13741;SDS011;8461;52.356;10.704;2023-03-13T14:17:56;1.30;;;0.60;;
13741;SDS011;8461;52.356;10.704;2023-03-13T14:23:35;1.33;;;0.60;;
13741;SDS011;8461;52.356;10.704;2023-03-13T14:28:42;0.67;;;0.40;;
13741;SDS011;8461;52.356;10.704;2023-03-13T14:34:03;1.73;;;0.60;;
13741;SDS011;8461;52.356;10.704;2023-03-13T14:36:44;1.50;;;0.67;;
13741;SDS011;8461;52.356;10.704;2023-03-13T14:39:18;0.67;;;0.33;;
13741;SDS011;8461;52.356;10.704;2023-03-13T14:41:46;0.87;;;0.50;;
13741;SDS011;8461;52.356;10.704;2023-03-13T14:44:21;1.97;;;0.40;;
13741;SDS011;8461;52.356;10.704;2023-03-13T14:46:52;1.13;;;0.57;;
13741;SDS011;8461;52.356;10.704;2023-03-13T14:49:21;0.40;;;0.40;;
13741;SDS011;8461;52.356;10.704;2023-03-13T14:51:56;0.83;;;0.60;;
13741;SDS011;8461;52.356;10.704;2023-03-13T14:54:54;1.10;;;0.70;;
13741;SDS011;8461;52.356;10.704;2023-03-13T14:57:20;1.17;;;0.40;;
13741;SDS011;8461;52.356;10.704;2023-03-13T14:59:49;1.50;;;0.43;;
13741;SDS011;8461;52.356;10.704;2023-03-13T15:02:22;0.60;;;0.40;;
13741;SDS011;8461;52.356;10.704;2023-03-13T15:04:56;0.97;;;0.50;;
13741;SDS011;8461;52.356;10.704;2023-03-13T15:07:47;1.30;;;0.53;;
13741;SDS011;8461;52.356;10.704;2023-03-13T15:12:48;2.77;;;0.40;;
13741;SDS011;8461;52.356;10.704;2023-03-13T15:15:15;1.00;;;0.43;;
13741;SDS011;8461;52.356;10.704;2023-03-13T15:17:41;1.50;;;0.50;;
13741;SDS011;8461;52.356;10.704;2023-03-13T15:20:09;0.40;;;0.30;;
13741;SDS011;8461;52.356;10.704;2023-03-13T15:22:37;1.80;;;0.60;;
13741;SDS011;8461;52.356;10.704;2023-03-13T15:25:13;0.93;;;0.30;;
13741;SDS011;8461;52.356;10.704;2023-03-13T15:27:41;0.70;;;0.47;;
13741;SDS011;8461;52.356;10.704;2023-03-13T15:30:06;0.40;;;0.20;;
13741;SDS011;8461;52.356;10.704;2023-03-13T15:32:33;0.30;;;0.30;;
13741;SDS011;8461;52.356;10.704;2023-03-13T15:35:01;1.43;;;0.30;;
13741;SDS011;8461;52.356;10.704;2023-03-13T15:37:39;0.40;;;0.30;;
13741;SDS011;8461;52.356;10.704;2023-03-13T15:40:05;1.10;;;0.20;;
13741;SDS011;8461;52.356;10.704;2023-03-13T15:42:34;0.57;;;0.30;;
13741;SDS011;8461;52.356;10.704;2023-03-13T15:45:00;0.50;;;0.40;;
13741;SDS011;8461;52.356;10.704;2023-03-13T15:47:25;1.00;;;0.60;;
13741;SDS011;8461;52.356;10.704;2023-03-13T15:49:51;0.53;;;0.37;;
13741;SDS011;8461;52.356;10.704;2023-03-13T15:52:18;0.83;;;0.50;;
13741;SDS011;8461;52.356;10.704;2023-03-13T15:54:46;0.80;;;0.40;;
13741;SDS011;8461;52.356;10.704;2023-03-13T15:57:14;1.43;;;0.50;;
13741;SDS011;8461;52.356;10.704;2023-03-13T15:59:42;1.57;;;0.53;;
13741;SDS011;8461;52.356;10.704;2023-03-13T16:02:15;0.60;;;0.40;;
13741;SDS011;8461;52.356;10.704;2023-03-13T16:04:42;0.90;;;0.40;;
13741;SDS011;8461;52.356;10.704;2023-03-13T16:07:13;0.80;;;0.67;;
13741;SDS011;8461;52.356;10.704;2023-03-13T16:09:45;1.00;;;0.50;;
13741;SDS011;8461;52.356;10.704;2023-03-13T16:12:11;1.70;;;0.70;;
13741;SDS011;8461;52.356;10.704;2023-03-13T16:14:37;1.03;;;0.40;;
13741;SDS011;8461;52.356;10.704;2023-03-13T16:17:09;1.03;;;0.60;;
13741;SDS011;8461;52.356;10.704;2023-03-13T16:19:43;2.20;;;0.67;;
13741;SDS011;8461;52.356;10.704;2023-03-13T16:22:10;1.70;;;0.70;;
13741;SDS011;8461;52.356;10.704;2023-03-13T16:24:36;2.17;;;0.63;;
13741;SDS011;8461;52.356;10.704;2023-03-13T16:27:04;0.90;;;0.60;;
13741;SDS011;8461;52.356;10.704;2023-03-13T16:29:35;0.70;;;0.57;;
13741;SDS011;8461;52.356;10.704;2023-03-13T16:32:01;1.40;;;0.40;;
13741;SDS011;8461;52.356;10.704;2023-03-13T16:34:26;1.63;;;0.70;;
13741;SDS011;8461;52.356;10.704;2023-03-13T16:36:52;0.70;;;0.43;;
13741;SDS011;8461;52.356;10.704;2023-03-13T16:39:17;0.40;;;0.40;;
13741;SDS011;8461;52.356;10.704;2023-03-13T16:41:43;0.43;;;0.33;;
13741;SDS011;8461;52.356;10.704;2023-03-13T16:44:08;0.93;;;0.60;;